createdAt,value
2023-03-06T00:02:03.010Z,13.63
2023-03-06T00:04:30.324Z,13.23
2023-03-06T00:06:57.642Z,12.45
2023-03-06T00:09:24.954Z,12.70
2023-03-06T00:11:52.275Z,12.80
2023-03-06T00:14:20.919Z,13.35
2023-03-06T00:16:48.220Z,12.90
2023-03-06T00:19:15.531Z,12.90
2023-03-06T00:21:42.896Z,12.38
2023-03-06T00:24:10.237Z,13.13
2023-03-06T00:26:37.602Z,12.70
2023-03-06T00:29:05.038Z,13.68
2023-03-06T00:31:33.870Z,12.50
2023-03-06T00:34:01.240Z,13.57
2023-03-06T00:36:28.615Z,13.70
2023-03-06T00:38:55.963Z,14.15
2023-03-06T00:41:23.285Z,14.70
2023-03-06T00:43:50.612Z,14.32
2023-03-06T00:46:17.904Z,15.02
2023-03-06T00:48:46.555Z,16.05
2023-03-06T00:51:14.108Z,16.73
2023-03-06T00:53:41.492Z,17.20
2023-03-06T00:56:09.369Z,17.83
2023-03-06T00:58:37.233Z,18.80
2023-03-06T01:01:04.751Z,16.23
2023-03-06T01:03:32.105Z,18.75
2023-03-06T01:06:00.748Z,18.13
2023-03-06T01:08:28.066Z,17.83
2023-03-06T01:10:55.469Z,18.05
2023-03-06T01:13:22.798Z,17.55
2023-03-06T01:15:50.095Z,18.52
2023-03-06T01:18:17.423Z,18.20
2023-03-06T01:20:44.702Z,17.90
2023-03-06T01:23:13.330Z,18.48
2023-03-06T01:25:40.626Z,18.05
2023-03-06T01:28:07.949Z,18.95
2023-03-06T01:30:35.239Z,20.08
2023-03-06T01:33:02.614Z,17.55
2023-03-06T01:35:29.972Z,19.45
2023-03-06T01:37:57.361Z,19.88
2023-03-06T01:40:26.133Z,19.83
2023-03-06T01:42:53.491Z,19.48
2023-03-06T01:45:39.168Z,20.48
2023-03-06T01:48:06.560Z,22.30
2023-03-06T01:50:33.906Z,22.67
2023-03-06T01:53:01.829Z,23.42
2023-03-06T01:55:33.701Z,22.83
2023-03-06T01:58:03.274Z,21.38
2023-03-06T02:00:31.061Z,23.95
2023-03-06T02:03:01.433Z,24.15
2023-03-06T02:05:28.784Z,24.75
2023-03-06T02:07:56.955Z,24.55
2023-03-06T02:10:24.332Z,25.88
2023-03-06T02:12:53.245Z,26.20
2023-03-06T02:15:22.202Z,26.90
2023-03-06T02:17:49.646Z,25.80
2023-03-06T02:20:19.763Z,25.60
2023-03-06T02:22:48.692Z,25.77
2023-03-06T02:25:25.135Z,26.63
2023-03-06T02:27:52.450Z,27.15
2023-03-06T02:30:20.132Z,28.88
2023-03-06T02:32:47.401Z,27.33
2023-03-06T02:35:18.630Z,28.88
2023-03-06T02:37:46.737Z,27.92
2023-03-06T02:40:15.580Z,29.98
2023-03-06T02:42:48.846Z,30.10
2023-03-06T02:45:18.239Z,29.45
2023-03-06T02:47:45.537Z,30.30
2023-03-06T02:50:12.878Z,29.13
2023-03-06T02:52:40.188Z,29.92
2023-03-06T02:55:08.021Z,30.98
2023-03-06T02:57:35.376Z,30.20
2023-03-06T03:00:04.446Z,28.20
2023-03-06T03:02:31.774Z,29.48
2023-03-06T03:04:59.106Z,30.10
2023-03-06T03:07:26.395Z,31.98
2023-03-06T03:09:53.743Z,32.08
2023-03-06T03:12:22.227Z,28.13
2023-03-06T03:14:49.634Z,32.47
2023-03-06T03:17:18.287Z,31.00
2023-03-06T03:19:45.596Z,31.70
2023-03-06T03:22:12.916Z,29.33
2023-03-06T03:24:41.928Z,30.50
2023-03-06T03:27:09.325Z,31.48
2023-03-06T03:29:36.696Z,35.50
2023-03-06T03:32:04.247Z,31.67
2023-03-06T03:34:32.908Z,31.38
2023-03-06T03:37:00.192Z,30.73
2023-03-06T03:39:27.624Z,31.30
2023-03-06T03:41:54.942Z,29.75
2023-03-06T03:44:22.285Z,31.38
2023-03-06T03:46:49.607Z,27.95
2023-03-06T03:49:16.921Z,30.23
2023-03-06T03:51:45.579Z,28.60
2023-03-06T03:54:12.932Z,31.25
2023-03-06T03:56:41.679Z,28.90
2023-03-06T03:59:09.562Z,31.08
2023-03-06T04:01:39.432Z,28.88
2023-03-06T04:04:07.090Z,30.92
2023-03-06T04:06:34.406Z,32.17
2023-03-06T04:09:04.432Z,30.50
2023-03-06T04:11:31.834Z,29.13
2023-03-06T04:13:59.126Z,30.17
2023-03-06T04:16:26.510Z,30.02
2023-03-06T04:18:53.847Z,24.98
2023-03-06T04:21:21.177Z,30.58
2023-03-06T04:23:48.466Z,29.58
2023-03-06T04:26:17.107Z,29.80
2023-03-06T04:28:44.388Z,30.33
2023-03-06T04:31:12.369Z,29.92
2023-03-06T04:33:39.747Z,29.45
2023-03-06T04:36:07.210Z,32.33
2023-03-06T04:38:34.550Z,31.25
2023-03-06T04:41:01.849Z,31.05
2023-03-06T04:43:30.594Z,30.38
2023-03-06T04:45:58.760Z,32.67
2023-03-06T04:48:26.132Z,31.70
2023-03-06T04:50:53.404Z,30.20
2023-03-06T04:53:21.692Z,31.98
2023-03-06T04:55:49.035Z,30.88
2023-03-06T04:58:16.319Z,31.05
2023-03-06T05:00:44.981Z,31.40
2023-03-06T05:03:14.138Z,33.05
2023-03-06T05:05:41.793Z,31.27
2023-03-06T05:08:09.723Z,32.88
2023-03-06T05:10:36.999Z,31.83
2023-03-06T05:13:04.360Z,28.77
2023-03-06T05:15:31.630Z,32.53
2023-03-06T05:18:00.320Z,30.95
2023-03-06T05:20:28.484Z,33.58
2023-03-06T05:22:55.867Z,29.40
2023-03-06T05:25:23.224Z,31.60
2023-03-06T05:27:50.548Z,31.85
2023-03-06T05:30:18.567Z,30.23
2023-03-06T05:32:45.889Z,30.20
2023-03-06T05:35:18.938Z,27.88
2023-03-06T05:37:46.486Z,32.42
2023-03-06T05:40:14.685Z,32.75
2023-03-06T05:42:41.982Z,30.75
2023-03-06T05:45:10.296Z,32.72
2023-03-06T05:47:37.670Z,31.10
2023-03-06T05:50:05.277Z,31.67
2023-03-06T05:52:33.939Z,31.75
2023-03-06T05:55:01.270Z,32.20
2023-03-06T05:57:28.591Z,31.88
2023-03-06T05:59:56.081Z,32.15
2023-03-06T06:02:23.511Z,33.67
2023-03-06T06:04:50.966Z,31.50
2023-03-06T06:07:18.515Z,31.75
2023-03-06T06:09:47.168Z,33.70
2023-03-06T06:12:14.795Z,32.63
2023-03-06T06:14:42.212Z,34.53
2023-03-06T06:17:09.664Z,36.28
2023-03-06T06:19:37.002Z,33.70
2023-03-06T06:22:04.395Z,36.42
2023-03-06T06:24:32.196Z,35.00
2023-03-06T06:27:03.772Z,33.72
2023-03-06T06:29:31.428Z,34.90
2023-03-06T06:31:59.030Z,33.92
2023-03-06T06:34:26.484Z,34.20
2023-03-06T06:36:54.354Z,33.22
2023-03-06T06:39:22.807Z,32.67
2023-03-06T06:42:05.544Z,31.85
2023-03-06T06:44:39.950Z,30.15
2023-03-06T06:47:24.831Z,33.88
2023-03-06T06:49:52.789Z,31.60
2023-03-06T06:52:20.195Z,32.38
2023-03-06T06:54:47.580Z,31.00
2023-03-06T06:57:15.219Z,29.98
2023-03-06T06:59:43.922Z,30.88
2023-03-06T07:02:11.839Z,23.42
2023-03-06T07:04:49.339Z,24.05
2023-03-06T07:07:25.522Z,30.05
2023-03-06T07:09:53.738Z,30.23
2023-03-06T07:12:21.128Z,31.13
2023-03-06T07:14:49.784Z,29.38
2023-03-06T07:17:17.111Z,31.05
2023-03-06T07:19:44.404Z,30.20
2023-03-06T07:22:11.848Z,29.25
2023-03-06T07:24:39.134Z,30.02
2023-03-06T07:27:06.524Z,30.33
2023-03-06T07:29:34.479Z,30.92
2023-03-06T07:32:03.254Z,31.10
2023-03-06T07:34:30.661Z,33.13
2023-03-06T07:36:58.037Z,31.88
2023-03-06T07:39:25.468Z,32.17
2023-03-06T07:41:53.348Z,31.13
2023-03-06T07:44:20.729Z,28.77
2023-03-06T07:46:48.147Z,30.15
2023-03-06T07:49:17.466Z,30.73
2023-03-06T07:51:44.924Z,28.88
2023-03-06T07:54:12.295Z,31.23
2023-03-06T07:56:39.648Z,30.65
2023-03-06T07:59:06.954Z,30.27
2023-03-06T08:01:36.045Z,31.85
2023-03-06T08:04:03.438Z,29.95
2023-03-06T08:06:33.146Z,31.63
2023-03-06T08:09:00.518Z,30.27
2023-03-06T08:11:29.839Z,31.27
2023-03-06T08:13:57.669Z,31.70
2023-03-06T08:16:25.967Z,28.25
2023-03-06T08:18:53.314Z,31.10
2023-03-06T08:21:21.412Z,31.65
2023-03-06T08:23:50.126Z,31.10
2023-03-06T08:26:18.514Z,30.45
2023-03-06T08:28:45.937Z,30.67
2023-03-06T08:31:14.290Z,28.60
2023-03-06T08:33:41.916Z,28.98
2023-03-06T08:36:09.330Z,27.67
2023-03-06T08:38:36.618Z,28.27
2023-03-06T08:41:05.449Z,27.40
2023-03-06T08:43:33.685Z,29.63
2023-03-06T08:46:01.101Z,27.58
2023-03-06T08:48:28.489Z,24.75
2023-03-06T08:50:55.810Z,25.83
2023-03-06T08:53:36.658Z,25.25
2023-03-06T08:56:15.373Z,24.75
2023-03-06T08:58:42.681Z,23.48
2023-03-06T09:01:13.739Z,24.75
2023-03-06T09:03:41.095Z,23.50
2023-03-06T09:06:08.446Z,24.20
2023-03-06T09:08:35.765Z,24.17
2023-03-06T09:11:03.036Z,25.92
2023-03-06T09:13:31.710Z,24.70
2023-03-06T09:15:59.054Z,23.92
2023-03-06T09:18:26.502Z,22.17
2023-03-06T09:20:53.795Z,25.50
2023-03-06T09:23:21.099Z,20.92
2023-03-06T09:25:52.682Z,25.38
2023-03-06T09:28:20.022Z,24.38
2023-03-06T09:30:48.791Z,23.55
2023-03-06T09:33:16.266Z,16.45
2023-03-06T09:35:47.213Z,22.40
2023-03-06T09:38:14.505Z,24.10
2023-03-06T09:40:47.858Z,22.40
2023-03-06T09:43:18.890Z,24.27
2023-03-06T09:45:46.372Z,23.65
2023-03-06T09:48:16.456Z,26.63
2023-03-06T09:50:45.414Z,24.52
2023-03-06T09:53:17.815Z,26.10
2023-03-06T09:55:47.570Z,25.42
2023-03-06T09:58:16.983Z,22.10
2023-03-06T10:00:47.516Z,23.17
2023-03-06T10:03:22.535Z,25.25
2023-03-06T10:05:51.402Z,25.15
2023-03-06T10:08:22.072Z,25.90
2023-03-06T10:10:54.799Z,19.58
2023-03-06T10:13:26.024Z,22.35
2023-03-06T10:15:55.942Z,22.90
2023-03-06T10:18:24.649Z,22.35
2023-03-06T10:21:04.739Z,22.50
2023-03-06T10:23:44.116Z,21.73
2023-03-06T10:26:14.078Z,21.67
2023-03-06T10:28:43.116Z,21.33
2023-03-06T10:31:14.259Z,21.02
2023-03-06T10:33:51.972Z,19.10
2023-03-06T10:36:20.047Z,15.95
2023-03-06T10:38:48.501Z,16.38
2023-03-06T10:41:21.953Z,17.73
2023-03-06T10:44:04.138Z,18.75
2023-03-06T10:46:33.219Z,18.65
2023-03-06T10:49:02.893Z,18.63
2023-03-06T10:51:30.739Z,19.73
2023-03-06T10:53:59.018Z,21.08
2023-03-06T10:56:27.271Z,17.30
2023-03-06T10:59:05.550Z,20.52
2023-03-06T11:01:32.944Z,22.02
2023-03-06T11:04:14.797Z,19.80
2023-03-06T11:06:42.311Z,18.77
2023-03-06T11:09:16.966Z,20.60
2023-03-06T11:11:44.264Z,20.80
2023-03-06T11:14:15.369Z,19.38
2023-03-06T11:16:51.823Z,18.08
2023-03-06T11:19:21.956Z,15.02
2023-03-06T11:22:00.161Z,20.27
2023-03-06T11:24:37.291Z,14.45
2023-03-06T11:27:08.251Z,16.67
2023-03-06T11:29:39.157Z,19.33
2023-03-06T11:32:10.101Z,17.13
2023-03-06T11:34:41.232Z,13.45
2023-03-06T11:37:11.606Z,16.83
2023-03-06T11:39:42.680Z,17.58
2023-03-06T11:42:15.037Z,18.42
2023-03-06T11:44:46.373Z,17.27
2023-03-06T11:47:17.252Z,19.75
2023-03-06T11:49:47.606Z,20.00
2023-03-06T11:52:19.238Z,19.33
2023-03-06T11:54:47.824Z,15.52
2023-03-06T11:57:18.279Z,17.23
2023-03-06T12:00:00.135Z,15.27
2023-03-06T12:02:34.192Z,17.98
2023-03-06T12:05:12.707Z,17.63
2023-03-06T12:07:46.034Z,15.63
2023-03-06T12:10:17.569Z,17.67
2023-03-06T12:12:57.309Z,14.35
2023-03-06T12:15:31.224Z,13.52
2023-03-06T12:18:07.082Z,16.37
2023-03-06T12:20:54.458Z,15.77
2023-03-06T12:23:28.992Z,15.02
2023-03-06T12:26:00.580Z,14.93
2023-03-06T12:28:32.277Z,13.77
2023-03-06T12:31:06.288Z,14.18
2023-03-06T12:33:40.712Z,11.05
2023-03-06T12:36:30.898Z,12.35
2023-03-06T12:39:03.060Z,12.30
2023-03-06T12:41:37.159Z,13.57
2023-03-06T12:44:19.461Z,12.70
2023-03-06T12:46:48.203Z,11.68
2023-03-06T12:49:31.545Z,11.80
2023-03-06T12:52:01.912Z,11.43
2023-03-06T12:54:30.560Z,12.45
2023-03-06T12:56:58.750Z,11.38
2023-03-06T12:59:39.400Z,10.52
2023-03-06T13:02:22.875Z,11.50
2023-03-06T13:05:00.589Z,11.43
2023-03-06T13:07:34.388Z,11.52
2023-03-06T13:10:07.301Z,11.68
2023-03-06T13:12:42.439Z,11.30
2023-03-06T13:15:25.317Z,11.55
2023-03-06T13:17:52.663Z,10.90
2023-03-06T13:20:28.887Z,11.70
2023-03-06T13:22:57.700Z,12.07
2023-03-06T13:25:35.213Z,11.68
2023-03-06T13:28:04.062Z,11.98
2023-03-06T13:30:44.617Z,11.25
2023-03-06T13:33:42.212Z,10.85
2023-03-06T13:36:27.440Z,12.55
2023-03-06T13:39:00.358Z,10.55
2023-03-06T13:41:38.891Z,11.75
2023-03-06T13:44:30.609Z,11.38
2023-03-06T13:46:59.614Z,12.50
2023-03-06T13:49:27.277Z,11.45
2023-03-06T13:52:03.854Z,12.20
2023-03-06T13:54:38.693Z,11.07
2023-03-06T13:59:39.342Z,13.02
2023-03-06T14:02:13.600Z,12.10
2023-03-06T14:04:46.779Z,12.73
2023-03-06T14:07:20.950Z,12.60
2023-03-06T14:09:52.462Z,12.52
2023-03-06T14:12:23.653Z,13.25
2023-03-06T14:14:53.655Z,13.38
2023-03-06T14:17:24.638Z,11.85
2023-03-06T14:19:52.074Z,11.82
2023-03-06T14:22:21.891Z,12.73
2023-03-06T14:24:55.247Z,14.13
2023-03-06T14:27:37.958Z,13.05
2023-03-06T14:30:06.162Z,12.93
2023-03-06T14:32:33.588Z,13.07
2023-03-06T14:35:00.980Z,13.95
2023-03-06T14:37:28.960Z,14.85
2023-03-06T14:39:57.662Z,11.30
2023-03-06T14:42:25.665Z,14.75
2023-03-06T14:45:01.479Z,13.55
2023-03-06T14:47:29.496Z,15.38
2023-03-06T14:50:15.654Z,14.60
2023-03-06T14:52:43.752Z,15.82
2023-03-06T14:55:13.033Z,14.23
2023-03-06T14:57:40.463Z,15.18
2023-03-06T15:00:08.899Z,14.15
2023-03-06T15:02:36.502Z,14.85
2023-03-06T15:05:06.160Z,15.95
2023-03-06T15:07:35.088Z,13.65
2023-03-06T15:10:02.524Z,13.73
2023-03-06T15:12:35.956Z,15.05
2023-03-06T15:15:04.388Z,14.00
2023-03-06T15:17:32.263Z,14.77
2023-03-06T15:20:00.540Z,14.63
2023-03-06T15:22:29.294Z,15.48
2023-03-06T15:25:10.696Z,14.88
2023-03-06T15:27:39.372Z,14.07
2023-03-06T15:30:14.256Z,16.55
2023-03-06T15:32:42.844Z,15.88
2023-03-06T15:35:30.350Z,15.88
2023-03-06T15:37:58.161Z,16.25
2023-03-06T15:40:26.333Z,15.90
2023-03-06T15:42:55.025Z,15.35
2023-03-06T15:45:23.292Z,14.52
2023-03-06T15:47:51.853Z,16.92
2023-03-06T15:50:20.943Z,16.42
2023-03-06T15:52:48.898Z,17.15
2023-03-06T15:55:17.076Z,15.98
2023-03-06T15:57:48.526Z,16.85
2023-03-06T16:00:27.763Z,16.73
2023-03-06T16:02:56.014Z,17.27
2023-03-06T16:05:24.265Z,15.30
2023-03-06T16:07:51.709Z,17.08
2023-03-06T16:10:19.826Z,17.35
2023-03-06T16:12:48.968Z,16.83
2023-03-06T16:15:20.457Z,17.63
2023-03-06T16:17:49.331Z,17.70
2023-03-06T16:20:18.140Z,15.82
2023-03-06T16:22:46.209Z,17.35
2023-03-06T16:25:14.674Z,17.73
2023-03-06T16:27:42.578Z,16.17
2023-03-06T16:30:15.270Z,16.23
2023-03-06T16:32:44.815Z,17.42
2023-03-06T16:35:12.500Z,16.98
2023-03-06T16:37:39.822Z,16.80
2023-03-06T16:40:15.809Z,16.92
2023-03-06T16:42:43.139Z,16.90
2023-03-06T16:45:11.394Z,16.52
2023-03-06T16:47:38.902Z,16.83
2023-03-06T16:50:08.281Z,17.60
2023-03-06T16:52:35.580Z,16.02
2023-03-06T16:55:02.882Z,14.93
2023-03-06T16:57:35.511Z,16.92
2023-03-06T17:00:02.981Z,17.20
2023-03-06T17:02:30.317Z,17.00
2023-03-06T17:04:57.687Z,17.48
2023-03-06T17:07:26.437Z,18.10
2023-03-06T17:09:53.928Z,16.95
2023-03-06T17:12:21.374Z,17.85
2023-03-06T17:14:48.744Z,19.83
2023-03-06T17:17:16.104Z,17.13
2023-03-06T17:19:47.026Z,17.77
2023-03-06T17:22:14.568Z,18.42
2023-03-06T17:24:43.220Z,17.50
2023-03-06T17:27:10.540Z,18.05
2023-03-06T17:29:37.916Z,19.00
2023-03-06T17:32:05.418Z,18.65
2023-03-06T17:34:32.905Z,19.23
2023-03-06T17:37:01.186Z,19.52
2023-03-06T17:39:32.209Z,18.42
2023-03-06T17:42:01.136Z,18.33
2023-03-06T17:44:28.457Z,18.35
2023-03-06T17:46:55.826Z,17.73
2023-03-06T17:49:25.001Z,18.42
2023-03-06T17:51:52.567Z,18.33
2023-03-06T17:54:20.316Z,18.02
2023-03-06T17:56:47.725Z,17.92
2023-03-06T17:59:16.615Z,15.50
2023-03-06T18:01:44.924Z,13.25
2023-03-06T18:04:12.582Z,15.35
2023-03-06T18:06:40.033Z,15.02
2023-03-06T18:09:07.676Z,16.33
2023-03-06T18:11:35.077Z,16.92
2023-03-06T18:14:05.017Z,18.08
2023-03-06T18:16:34.287Z,17.02
2023-03-06T18:19:01.680Z,16.77
2023-03-06T18:21:29.054Z,13.00
2023-03-06T18:23:58.045Z,16.20
2023-03-06T18:26:26.543Z,15.77
2023-03-06T18:28:54.796Z,16.38
2023-03-06T18:31:24.278Z,16.20
2023-03-06T18:33:53.406Z,14.18
2023-03-06T18:36:21.958Z,14.95
2023-03-06T18:38:49.866Z,14.10
2023-03-06T18:41:17.567Z,13.02
2023-03-06T18:43:45.186Z,17.20
2023-03-06T18:46:12.784Z,13.82
2023-03-06T18:48:40.231Z,12.85
2023-03-06T18:51:10.091Z,16.23
2023-03-06T18:53:37.572Z,13.68
2023-03-06T18:56:05.017Z,15.93
2023-03-06T18:58:32.321Z,14.50
2023-03-06T19:01:02.039Z,17.23
2023-03-06T19:03:29.401Z,12.43
2023-03-06T19:05:56.795Z,12.45
2023-03-06T19:08:25.815Z,15.15
2023-03-06T19:10:53.154Z,12.32
2023-03-06T19:13:20.521Z,15.90
2023-03-06T19:15:49.061Z,14.95
2023-03-06T19:18:17.419Z,14.95
2023-03-06T19:20:45.220Z,15.98
2023-03-06T19:23:13.302Z,10.18
2023-03-06T19:25:42.081Z,11.88
2023-03-06T19:28:09.446Z,16.63
2023-03-06T19:30:40.356Z,14.43
2023-03-06T19:33:07.671Z,17.02
2023-03-06T19:35:36.143Z,12.55
2023-03-06T19:38:03.605Z,14.23
2023-03-06T19:40:30.946Z,13.45
2023-03-06T19:42:59.719Z,15.98
2023-03-06T19:45:27.033Z,15.57
2023-03-06T19:47:55.887Z,15.30
2023-03-06T19:50:23.912Z,16.30
2023-03-06T19:52:52.637Z,15.32
2023-03-06T19:55:20.407Z,13.70
2023-03-06T19:57:48.870Z,15.50
2023-03-06T20:00:18.027Z,15.82
2023-03-06T20:02:45.342Z,14.85
2023-03-06T20:05:12.733Z,12.52
2023-03-06T20:07:40.113Z,12.00
2023-03-06T20:10:07.676Z,11.75
2023-03-06T20:12:35.061Z,13.40
2023-03-06T20:15:02.418Z,14.90
2023-03-06T20:17:31.067Z,12.93
2023-03-06T20:19:58.683Z,10.18
2023-03-06T20:22:25.964Z,17.58
2023-03-06T20:24:53.275Z,13.38
2023-03-06T20:27:20.767Z,14.43
2023-03-06T20:29:48.075Z,14.48
2023-03-06T20:32:15.424Z,11.60
2023-03-06T20:34:44.449Z,14.02
2023-03-06T20:37:11.790Z,12.38
2023-03-06T20:39:39.191Z,14.30
2023-03-06T20:42:06.730Z,14.98
2023-03-06T20:44:34.058Z,13.13
2023-03-06T20:47:01.392Z,14.10
2023-03-06T20:49:29.630Z,13.48
2023-03-06T20:51:58.336Z,16.30
2023-03-06T20:54:25.700Z,11.85
2023-03-06T20:56:53.071Z,19.75
2023-03-06T20:59:21.267Z,15.32
2023-03-06T21:01:48.632Z,17.88
2023-03-06T21:04:16.140Z,16.95
2023-03-06T21:06:46.265Z,18.90
2023-03-06T21:09:16.228Z,17.55
2023-03-06T21:11:43.741Z,13.15
2023-03-06T21:14:13.064Z,14.98
2023-03-06T21:16:40.824Z,17.58
2023-03-06T21:19:09.166Z,16.77
2023-03-06T21:21:36.513Z,14.60
2023-03-06T21:24:03.996Z,15.70
2023-03-06T21:26:34.576Z,17.40
2023-03-06T21:29:02.609Z,20.17
2023-03-06T21:31:30.836Z,21.52
2023-03-06T21:33:58.682Z,18.88
2023-03-06T21:36:26.250Z,12.27
2023-03-06T21:38:54.269Z,22.10
2023-03-06T21:41:24.008Z,19.65
2023-03-06T21:43:55.512Z,14.40
2023-03-06T21:46:22.845Z,19.00
2023-03-06T21:48:50.159Z,16.02
2023-03-06T21:51:18.930Z,17.77
2023-03-06T21:53:46.795Z,16.75
2023-03-06T21:56:15.169Z,15.65
2023-03-06T21:58:42.777Z,21.38
2023-03-06T22:01:12.014Z,23.20
2023-03-06T22:03:39.368Z,15.98
2023-03-06T22:06:10.503Z,22.42
2023-03-06T22:08:37.802Z,19.23
2023-03-06T22:11:09.407Z,18.67
2023-03-06T22:13:36.857Z,18.90
2023-03-06T22:16:04.628Z,20.00
2023-03-06T22:18:33.545Z,16.00
2023-03-06T22:21:01.230Z,20.02
2023-03-06T22:23:28.593Z,11.85
2023-03-06T22:25:55.999Z,16.80
2023-03-06T22:28:23.323Z,16.58
2023-03-06T22:30:50.607Z,12.27
2023-03-06T22:33:17.935Z,13.88
2023-03-06T22:35:46.657Z,11.63
2023-03-06T22:38:15.821Z,14.00
2023-03-06T22:40:43.116Z,16.08
2023-03-06T22:43:10.406Z,13.27
2023-03-06T22:45:37.730Z,16.00
2023-03-06T22:48:10.822Z,11.10
2023-03-06T22:50:38.530Z,13.45
2023-03-06T22:53:07.198Z,15.90
2023-03-06T22:55:35.547Z,13.95
2023-03-06T22:58:02.878Z,11.88
2023-03-06T23:00:30.184Z,13.82
2023-03-06T23:02:57.489Z,13.13
2023-03-06T23:05:24.787Z,11.18
2023-03-06T23:07:52.461Z,13.07
2023-03-06T23:10:21.204Z,12.48
2023-03-06T23:12:48.505Z,10.32
2023-03-06T23:15:15.856Z,11.43
2023-03-06T23:17:43.153Z,9.70
2023-03-06T23:20:11.860Z,12.68
2023-03-06T23:22:39.204Z,8.82
2023-03-06T23:25:06.953Z,8.10
2023-03-06T23:27:37.375Z,9.13
2023-03-06T23:30:05.665Z,11.30
2023-03-06T23:32:33.527Z,8.45
2023-03-06T23:35:00.897Z,9.20
2023-03-06T23:37:28.229Z,9.40
2023-03-06T23:39:55.578Z,8.57
2023-03-06T23:42:23.450Z,6.55
2023-03-06T23:44:52.116Z,7.32
2023-03-06T23:47:20.009Z,8.52
2023-03-06T23:49:47.543Z,7.13
2023-03-06T23:52:17.018Z,7.60
2023-03-06T23:54:44.307Z,7.25
2023-03-06T23:57:11.606Z,7.85
2023-03-06T23:59:39.009Z,5.28
